Milford, Indiana
Current Conditions -  °F | °C
As of 12:53 PM on Monday 24 Nov 2014 (Local Time) from KGSH Reporting Station
Overcast Overcast  
Wind Chill: 33°   Ceiling: 1900
Heat Index: 43°   Visibility: 10mi
Dew Point: 31°   Wind: 26mph
Humidity: 62%   Direction: 230°SW
Pressure: 29.35"   Gusts: 46mph
Location:  41.41°N, 85.85°W
Report Text: KGSH 241753Z AUTO 23023G40KT 10SM OVC019 06/M01 A2935 RMK AO2 PK WND 24048/1728 RAEMM PRESRR SLP940 P0000 60016 T00611006 10194 20033 51087 $
Loading
Personal Weather Stations






























Interactive Weather Map New forecast layout! Learn more

10-Day Weather Forecast

Advertisements
Track Severe Weather on mobile